createdAt,value
2022-10-26T00:01:44.739Z,10.93
2022-10-26T00:04:12.746Z,10.90
2022-10-26T00:06:40.620Z,10.85
2022-10-26T00:09:08.527Z,10.87
2022-10-26T00:11:37.832Z,10.87
2022-10-26T00:14:06.018Z,10.91
2022-10-26T00:16:34.041Z,10.90
2022-10-26T00:19:01.983Z,10.90
2022-10-26T00:21:29.909Z,10.80
2022-10-26T00:23:59.754Z,10.92
2022-10-26T00:26:27.687Z,10.93
2022-10-26T00:28:57.983Z,10.85
2022-10-26T00:31:26.144Z,10.87
2022-10-26T00:33:54.822Z,10.86
2022-10-26T00:36:23.339Z,10.86
2022-10-26T00:38:52.071Z,10.91
2022-10-26T00:41:22.646Z,10.78
2022-10-26T00:43:51.601Z,10.90
2022-10-26T00:46:23.926Z,10.84
2022-10-26T00:48:56.185Z,10.75
2022-10-26T00:51:28.995Z,10.75
2022-10-26T00:53:57.626Z,10.81
2022-10-26T00:56:25.789Z,10.79
2022-10-26T00:58:53.964Z,10.74
2022-10-26T01:01:23.248Z,10.74
2022-10-26T01:03:51.251Z,10.79
2022-10-26T01:06:19.949Z,10.76
2022-10-26T01:08:48.950Z,10.71
2022-10-26T01:11:17.277Z,10.75
2022-10-26T01:13:47.393Z,10.78
2022-10-26T01:16:32.349Z,10.70
2022-10-26T01:19:14.218Z,10.72
2022-10-26T01:21:50.642Z,10.71
2022-10-26T01:24:44.541Z,10.67
2022-10-26T01:27:35.225Z,10.57
2022-10-26T01:30:37.317Z,10.60
2022-10-26T01:33:14.859Z,10.53
2022-10-26T01:35:52.150Z,10.61
2022-10-26T01:38:26.840Z,10.64
2022-10-26T01:41:01.643Z,10.64
2022-10-26T01:43:35.267Z,10.56
2022-10-26T01:46:06.684Z,10.55
2022-10-26T01:48:36.230Z,10.46
2022-10-26T01:51:05.446Z,10.52
2022-10-26T01:53:33.402Z,10.46
2022-10-26T01:56:03.394Z,10.45
2022-10-26T01:59:03.135Z,10.38
2022-10-26T02:01:54.411Z,10.36
2022-10-26T02:04:35.898Z,10.45
2022-10-26T02:07:08.423Z,10.41
2022-10-26T02:09:44.826Z,10.46
2022-10-26T02:12:20.545Z,10.41
2022-10-26T02:14:51.082Z,10.49
2022-10-26T02:17:28.647Z,10.48
2022-10-26T02:20:01.925Z,10.53
2022-10-26T02:22:32.963Z,10.59
2022-10-26T02:25:05.482Z,10.57
2022-10-26T02:27:38.164Z,10.51
2022-10-26T02:30:07.297Z,10.54
2022-10-26T02:32:40.695Z,10.45
2022-10-26T02:35:09.334Z,10.52
2022-10-26T02:37:38.917Z,10.53
2022-10-26T02:40:10.952Z,10.51
2022-10-26T02:42:43.023Z,10.51
2022-10-26T02:45:14.708Z,10.53
2022-10-26T02:47:44.319Z,10.56
2022-10-26T02:50:12.543Z,10.55
2022-10-26T02:52:50.768Z,10.55
2022-10-26T02:55:23.713Z,10.55
2022-10-26T02:57:55.660Z,10.58
2022-10-26T03:00:23.581Z,10.70
2022-10-26T03:02:57.161Z,10.65
2022-10-26T03:05:27.611Z,10.71
2022-10-26T03:07:56.888Z,10.71
2022-10-26T03:10:24.910Z,10.77
2022-10-26T03:12:53.365Z,10.88
2022-10-26T03:15:21.321Z,10.77
2022-10-26T03:17:49.464Z,10.89
2022-10-26T03:20:19.122Z,10.86
2022-10-26T03:22:48.403Z,10.88
2022-10-26T03:25:16.775Z,10.80
2022-10-26T03:27:45.133Z,10.76
2022-10-26T03:30:13.127Z,10.75
2022-10-26T03:32:40.993Z,10.73
2022-10-26T03:35:09.669Z,10.67
2022-10-26T03:37:38.850Z,10.62
2022-10-26T03:40:07.829Z,10.55
2022-10-26T03:42:37.245Z,10.56
2022-10-26T03:45:06.755Z,10.61
2022-10-26T03:47:35.293Z,10.59
2022-10-26T03:50:03.194Z,10.60
2022-10-26T03:52:31.160Z,10.59
2022-10-26T03:55:00.383Z,10.59
2022-10-26T03:57:28.242Z,10.65
2022-10-26T03:59:56.074Z,10.59
2022-10-26T04:02:24.089Z,10.65
2022-10-26T04:04:52.006Z,10.56
2022-10-26T04:07:19.999Z,10.66
2022-10-26T04:09:47.922Z,10.62
2022-10-26T04:12:17.186Z,10.61
2022-10-26T04:14:45.029Z,10.54
2022-10-26T04:17:12.896Z,10.53
2022-10-26T04:19:40.725Z,10.50
2022-10-26T04:22:08.590Z,10.54
2022-10-26T04:24:36.449Z,10.58
2022-10-26T04:27:04.354Z,10.56
2022-10-26T04:29:33.563Z,10.59
2022-10-26T04:32:01.494Z,10.57
2022-10-26T04:34:29.367Z,10.63
2022-10-26T04:36:57.210Z,10.52
2022-10-26T04:39:25.667Z,10.53
2022-10-26T04:41:54.787Z,10.46
2022-10-26T04:44:22.676Z,10.37
2022-10-26T04:46:51.904Z,10.33
2022-10-26T04:49:19.775Z,10.15
2022-10-26T04:51:47.649Z,10.34
2022-10-26T04:54:15.915Z,10.35
2022-10-26T04:56:43.810Z,10.29
2022-10-26T04:59:11.732Z,10.25
2022-10-26T05:01:39.782Z,10.26
2022-10-26T05:04:09.137Z,10.30
2022-10-26T05:06:37.050Z,10.32
2022-10-26T05:09:05.110Z,10.32
2022-10-26T05:11:32.992Z,10.32
2022-10-26T05:14:00.930Z,10.31
2022-10-26T05:16:29.029Z,10.31
2022-10-26T05:18:56.959Z,10.28
2022-10-26T05:21:26.281Z,10.26
2022-10-26T05:23:55.434Z,10.27
2022-10-26T05:26:24.165Z,10.23
2022-10-26T05:28:53.372Z,10.03
2022-10-26T05:31:21.691Z,10.19
2022-10-26T05:33:50.249Z,10.20
2022-10-26T05:36:18.320Z,10.25
2022-10-26T05:38:47.850Z,10.29
2022-10-26T05:41:15.759Z,10.30
2022-10-26T05:43:43.634Z,10.24
2022-10-26T05:46:11.475Z,10.25
2022-10-26T05:48:39.367Z,10.06
2022-10-26T05:51:07.258Z,10.25
2022-10-26T05:53:35.318Z,10.32
2022-10-26T05:56:14.665Z,10.29
2022-10-26T05:58:43.117Z,10.29
2022-10-26T06:01:20.995Z,10.32
2022-10-26T06:04:03.135Z,10.25
2022-10-26T06:06:42.768Z,10.26
2022-10-26T06:09:11.952Z,10.28
2022-10-26T06:11:42.085Z,10.24
2022-10-26T06:14:11.147Z,10.27
2022-10-26T06:16:51.488Z,10.40
2022-10-26T06:19:32.948Z,10.43
2022-10-26T06:22:14.995Z,10.43
2022-10-26T06:24:52.429Z,10.44
2022-10-26T06:27:29.821Z,10.51
2022-10-26T06:30:01.611Z,10.46
2022-10-26T06:32:29.688Z,10.51
2022-10-26T06:35:15.671Z,10.63
2022-10-26T06:37:45.422Z,10.62
2022-10-26T06:40:15.807Z,10.67
2022-10-26T06:42:46.052Z,10.71
2022-10-26T06:45:15.774Z,10.71
2022-10-26T06:47:50.630Z,10.85
2022-10-26T06:50:33.599Z,10.94
2022-10-26T06:53:10.927Z,10.90
2022-10-26T06:55:43.385Z,10.87
2022-10-26T06:58:17.266Z,11.01
2022-10-26T07:00:46.943Z,11.14
2022-10-26T07:03:14.810Z,11.21
2022-10-26T07:05:43.893Z,11.22
2022-10-26T07:08:12.260Z,11.42
2022-10-26T07:10:40.229Z,11.44
2022-10-26T07:13:08.376Z,11.56
2022-10-26T07:15:38.887Z,11.77
2022-10-26T07:18:08.707Z,11.88
2022-10-26T07:20:38.266Z,11.89
2022-10-26T07:23:07.971Z,12.12
2022-10-26T07:25:40.132Z,12.21
2022-10-26T07:28:10.126Z,12.10
2022-10-26T07:30:40.777Z,12.29
2022-10-26T07:33:11.124Z,12.43
2022-10-26T07:35:39.205Z,12.47
2022-10-26T07:38:07.736Z,12.45
2022-10-26T07:40:36.860Z,12.55
2022-10-26T07:43:04.871Z,12.66
2022-10-26T07:45:32.797Z,12.77
2022-10-26T07:48:02.084Z,12.79
2022-10-26T07:50:30.222Z,12.80
2022-10-26T07:52:59.557Z,12.85
2022-10-26T07:55:28.195Z,13.06
2022-10-26T07:57:56.745Z,13.15
2022-10-26T08:00:25.692Z,13.15
2022-10-26T08:02:53.679Z,13.08
2022-10-26T08:05:23.089Z,13.17
2022-10-26T08:07:51.333Z,13.15
2022-10-26T08:10:19.408Z,13.29
2022-10-26T08:12:47.321Z,13.35
2022-10-26T08:15:15.439Z,13.41
2022-10-26T08:17:43.376Z,13.53
2022-10-26T08:20:12.410Z,13.52
2022-10-26T08:22:41.737Z,13.52
2022-10-26T08:25:10.193Z,13.55
2022-10-26T08:27:38.097Z,13.65
2022-10-26T08:30:06.788Z,13.69
2022-10-26T08:32:34.719Z,13.77
2022-10-26T08:35:02.872Z,13.82
2022-10-26T08:37:30.942Z,13.91
2022-10-26T08:40:02.959Z,13.91
2022-10-26T08:42:36.283Z,13.73
2022-10-26T08:45:08.799Z,13.97
2022-10-26T08:47:43.118Z,14.14
2022-10-26T08:50:15.349Z,14.12
2022-10-26T08:52:51.208Z,14.27
2022-10-26T08:55:34.196Z,14.37
2022-10-26T08:58:05.223Z,14.45
2022-10-26T09:00:33.402Z,14.56
2022-10-26T09:03:01.347Z,14.69
2022-10-26T09:05:41.613Z,14.94
2022-10-26T09:08:18.638Z,14.89
2022-10-26T09:11:00.215Z,15.46
2022-10-26T09:13:39.496Z,15.96
2022-10-26T09:16:16.774Z,16.14
2022-10-26T09:18:55.830Z,18.01
2022-10-26T09:21:35.188Z,18.17
2022-10-26T09:24:13.270Z,18.91
2022-10-26T09:26:54.500Z,19.66
2022-10-26T09:29:28.046Z,19.65
2022-10-26T09:31:59.836Z,19.20
2022-10-26T09:34:32.567Z,18.32
2022-10-26T09:37:01.347Z,18.26
2022-10-26T09:39:40.952Z,19.10
2022-10-26T09:42:19.902Z,20.33
2022-10-26T09:44:54.911Z,20.13
2022-10-26T09:47:32.558Z,19.66
2022-10-26T09:50:08.522Z,19.02
2022-10-26T09:52:36.488Z,18.76
2022-10-26T09:55:04.748Z,18.37
2022-10-26T09:57:34.379Z,18.39
2022-10-26T10:00:02.539Z,18.68
2022-10-26T10:02:37.177Z,18.32
2022-10-26T10:05:32.818Z,18.47
2022-10-26T10:08:18.251Z,18.97
2022-10-26T10:11:00.261Z,19.03
2022-10-26T10:13:31.599Z,19.06
2022-10-26T10:16:05.844Z,19.02
2022-10-26T10:18:35.336Z,18.94
2022-10-26T10:21:05.676Z,18.66
2022-10-26T10:23:35.479Z,18.51
2022-10-26T10:26:06.974Z,18.61
2022-10-26T10:28:37.976Z,18.91
2022-10-26T10:31:19.227Z,18.84
2022-10-26T10:33:49.230Z,18.97
2022-10-26T10:36:19.384Z,19.07
2022-10-26T10:38:49.574Z,18.89
2022-10-26T10:41:20.910Z,19.03
2022-10-26T10:43:52.795Z,19.25
2022-10-26T10:46:24.067Z,19.27
2022-10-26T10:48:55.959Z,19.45
2022-10-26T10:51:26.623Z,19.17
2022-10-26T10:53:56.779Z,19.04
2022-10-26T10:56:42.512Z,19.15
2022-10-26T10:59:36.422Z,19.36
2022-10-26T11:02:32.368Z,19.14
2022-10-26T11:05:23.325Z,19.15
2022-10-26T11:07:58.994Z,19.04
2022-10-26T11:10:31.804Z,19.05
2022-10-26T11:13:03.330Z,19.14
2022-10-26T11:15:35.966Z,19.25
2022-10-26T11:18:10.760Z,19.35
2022-10-26T11:20:43.950Z,19.22
2022-10-26T11:23:14.745Z,19.08
2022-10-26T11:25:49.111Z,19.09
2022-10-26T11:28:24.109Z,19.30
2022-10-26T11:30:58.719Z,19.95
2022-10-26T11:33:31.549Z,20.25
2022-10-26T11:36:03.817Z,20.62
2022-10-26T11:38:52.651Z,20.67
2022-10-26T11:41:30.648Z,21.05
2022-10-26T11:44:06.940Z,21.33
2022-10-26T11:46:41.846Z,21.22
2022-10-26T11:49:15.699Z,20.76
2022-10-26T11:51:47.847Z,20.58
2022-10-26T11:56:56.811Z,20.96
2022-10-26T11:59:30.767Z,21.15
2022-10-26T12:02:07.219Z,21.21
2022-10-26T12:04:38.441Z,21.21
2022-10-26T12:07:11.803Z,20.88
2022-10-26T12:09:42.443Z,21.12
2022-10-26T12:12:17.969Z,21.38
2022-10-26T12:14:50.504Z,20.88
2022-10-26T12:17:27.488Z,21.42
2022-10-26T12:20:02.112Z,21.20
2022-10-26T12:22:33.937Z,21.51
2022-10-26T12:25:19.908Z,21.58
2022-10-26T12:27:56.530Z,21.50
2022-10-26T12:30:30.400Z,21.47
2022-10-26T12:33:01.502Z,21.33
2022-10-26T12:35:38.223Z,21.45
2022-10-26T12:38:42.477Z,21.51
2022-10-26T12:41:19.738Z,21.67
2022-10-26T12:43:47.956Z,21.79
2022-10-26T12:46:43.678Z,21.78
2022-10-26T12:49:47.533Z,21.82
2022-10-26T12:52:38.643Z,21.72
2022-10-26T12:55:36.094Z,21.54
2022-10-26T12:58:43.494Z,21.41
2022-10-26T13:01:35.378Z,21.37
2022-10-26T13:04:15.918Z,21.14
2022-10-26T13:06:57.033Z,21.11
2022-10-26T13:09:30.047Z,21.41
2022-10-26T13:11:59.076Z,21.60
2022-10-26T13:14:32.511Z,21.45
2022-10-26T13:17:01.790Z,21.42
2022-10-26T13:19:33.851Z,21.44
2022-10-26T13:22:02.253Z,21.21
2022-10-26T13:24:35.380Z,20.92
2022-10-26T13:27:39.653Z,20.77
2022-10-26T13:30:46.317Z,20.87
2022-10-26T13:33:32.484Z,20.84
2022-10-26T13:36:07.406Z,20.87
2022-10-26T13:38:37.796Z,20.61
2022-10-26T13:41:15.232Z,20.63
2022-10-26T13:43:44.284Z,20.78
2022-10-26T13:46:25.979Z,20.86
2022-10-26T13:48:59.627Z,20.99
2022-10-26T13:51:37.812Z,21.08
2022-10-26T13:54:14.033Z,21.21
2022-10-26T13:56:54.366Z,21.43
2022-10-26T13:59:24.125Z,21.33
2022-10-26T14:02:07.170Z,21.22
2022-10-26T14:04:35.135Z,21.14
2022-10-26T14:07:03.142Z,21.05
2022-10-26T14:09:31.966Z,20.66
2022-10-26T14:12:03.000Z,20.52
2022-10-26T14:14:33.563Z,20.45
2022-10-26T14:17:01.965Z,20.44
2022-10-26T14:19:31.966Z,20.49
2022-10-26T14:22:00.165Z,20.44
2022-10-26T14:24:45.603Z,20.31
2022-10-26T14:27:18.550Z,20.22
2022-10-26T14:30:03.623Z,20.13
2022-10-26T14:32:36.548Z,20.10
2022-10-26T14:35:04.703Z,19.87
2022-10-26T14:37:40.040Z,19.81
2022-10-26T14:40:14.882Z,19.97
2022-10-26T14:42:50.692Z,19.89
2022-10-26T14:45:29.862Z,19.87
2022-10-26T14:48:23.495Z,19.86
2022-10-26T14:51:01.675Z,19.74
2022-10-26T14:53:37.488Z,19.64
2022-10-26T14:56:07.379Z,19.50
2022-10-26T14:58:37.604Z,19.54
2022-10-26T15:01:48.614Z,19.48
2022-10-26T15:04:29.025Z,19.48
2022-10-26T15:07:03.742Z,19.43
2022-10-26T15:09:42.494Z,19.21
2022-10-26T15:12:21.781Z,19.46
2022-10-26T15:14:51.409Z,19.32
2022-10-26T15:17:24.325Z,19.30
2022-10-26T15:19:53.639Z,19.17
2022-10-26T15:22:28.368Z,19.14
2022-10-26T15:25:04.991Z,19.06
2022-10-26T15:27:32.877Z,19.03
2022-10-26T15:30:19.077Z,18.90
2022-10-26T15:32:47.460Z,18.88
2022-10-26T15:35:25.314Z,18.83
2022-10-26T15:37:55.069Z,18.83
2022-10-26T15:40:23.826Z,18.72
2022-10-26T15:42:53.642Z,18.60
2022-10-26T15:45:24.755Z,18.53
2022-10-26T15:47:54.243Z,18.49
2022-10-26T15:50:24.455Z,18.43
2022-10-26T15:52:59.755Z,18.39
2022-10-26T15:55:27.882Z,18.28
2022-10-26T15:57:55.870Z,18.15
2022-10-26T16:00:25.366Z,18.10
2022-10-26T16:02:53.484Z,18.04
2022-10-26T16:05:21.447Z,17.89
2022-10-26T16:07:49.970Z,17.90
2022-10-26T16:10:21.362Z,17.79
2022-10-26T16:12:50.231Z,17.71
2022-10-26T16:15:20.376Z,17.61
2022-10-26T16:17:50.708Z,17.57
2022-10-26T16:20:21.079Z,17.49
2022-10-26T16:22:50.022Z,17.35
2022-10-26T16:25:20.822Z,17.11
2022-10-26T16:27:49.482Z,17.25
2022-10-26T16:30:18.148Z,17.06
2022-10-26T16:32:46.254Z,17.14
2022-10-26T16:35:15.882Z,17.10
2022-10-26T16:37:43.896Z,17.03
2022-10-26T16:40:12.839Z,16.95
2022-10-26T16:42:43.811Z,16.92
2022-10-26T16:45:12.403Z,16.86
2022-10-26T16:47:40.475Z,16.74
2022-10-26T16:50:10.421Z,16.70
2022-10-26T16:52:40.115Z,16.68
2022-10-26T16:55:09.568Z,16.63
2022-10-26T16:57:37.911Z,16.51
2022-10-26T17:00:07.864Z,16.56
2022-10-26T17:02:36.024Z,16.49
2022-10-26T17:05:07.194Z,16.35
2022-10-26T17:07:36.165Z,16.29
2022-10-26T17:10:06.202Z,16.17
2022-10-26T17:12:34.195Z,16.17
2022-10-26T17:15:02.592Z,16.11
2022-10-26T17:17:30.761Z,16.08
2022-10-26T17:19:58.961Z,15.99
2022-10-26T17:22:26.850Z,16.04
2022-10-26T17:24:54.789Z,16.02
2022-10-26T17:27:24.087Z,15.99
2022-10-26T17:29:51.993Z,15.90
2022-10-26T17:32:22.207Z,15.91
2022-10-26T17:34:50.136Z,15.85
2022-10-26T17:37:18.167Z,15.84
2022-10-26T17:39:46.276Z,15.79
2022-10-26T17:42:14.221Z,15.72
2022-10-26T17:44:43.632Z,15.65
2022-10-26T17:47:11.560Z,15.62
2022-10-26T17:49:39.580Z,15.56
2022-10-26T17:52:07.551Z,15.61
2022-10-26T17:54:35.461Z,15.59
2022-10-26T17:57:03.421Z,15.61
2022-10-26T17:59:31.467Z,15.60
2022-10-26T18:02:00.847Z,15.65
2022-10-26T18:04:28.998Z,15.63
2022-10-26T18:06:56.986Z,15.65
2022-10-26T18:09:24.926Z,15.65
2022-10-26T18:11:55.117Z,15.62
2022-10-26T18:14:24.231Z,15.61
2022-10-26T18:16:52.279Z,15.61
2022-10-26T18:19:21.867Z,15.56
2022-10-26T18:21:49.833Z,15.45
2022-10-26T18:24:17.902Z,15.51
2022-10-26T18:26:45.818Z,15.55
2022-10-26T18:29:14.135Z,15.51
2022-10-26T18:31:42.080Z,15.46
2022-10-26T18:34:11.498Z,15.47
2022-10-26T18:36:40.797Z,15.46
2022-10-26T18:39:08.692Z,15.38
2022-10-26T18:41:36.701Z,15.39
2022-10-26T18:44:05.081Z,15.34
2022-10-26T18:46:35.427Z,15.27
2022-10-26T18:49:05.273Z,15.23
2022-10-26T18:51:34.614Z,15.16
2022-10-26T18:54:04.178Z,15.08
2022-10-26T18:56:32.499Z,14.99
2022-10-26T18:59:01.406Z,14.89
2022-10-26T19:01:31.696Z,14.90
2022-10-26T19:04:01.782Z,14.84
2022-10-26T19:06:31.458Z,14.78
2022-10-26T19:09:00.443Z,14.75
2022-10-26T19:11:31.317Z,14.73
2022-10-26T19:13:59.483Z,14.66
2022-10-26T19:16:46.809Z,14.63
2022-10-26T19:19:16.079Z,14.58
2022-10-26T19:21:44.708Z,14.44
2022-10-26T19:24:14.998Z,14.53
2022-10-26T19:26:45.083Z,14.47
2022-10-26T19:29:16.024Z,14.38
2022-10-26T19:31:45.456Z,14.38
2022-10-26T19:34:15.084Z,14.35
2022-10-26T19:36:45.123Z,14.26
2022-10-26T19:39:14.455Z,14.37
2022-10-26T19:41:44.250Z,14.22
2022-10-26T19:44:13.996Z,14.27
2022-10-26T19:46:43.111Z,14.21
2022-10-26T19:49:12.447Z,14.14
2022-10-26T19:51:40.400Z,14.12
2022-10-26T19:54:08.606Z,14.05
2022-10-26T19:56:38.262Z,14.04
2022-10-26T19:59:09.189Z,13.92
2022-10-26T20:01:37.900Z,13.99
2022-10-26T20:04:06.303Z,13.75
2022-10-26T20:06:34.317Z,13.92
2022-10-26T20:09:02.711Z,13.94
2022-10-26T20:11:32.107Z,13.99
2022-10-26T20:14:00.178Z,13.98
2022-10-26T20:16:29.529Z,13.97
2022-10-26T20:18:57.371Z,13.94
2022-10-26T20:21:25.333Z,13.89
2022-10-26T20:23:53.244Z,13.94
2022-10-26T20:26:22.560Z,13.99
2022-10-26T20:28:52.215Z,13.92
2022-10-26T20:31:20.366Z,13.96
2022-10-26T20:33:52.771Z,13.88
2022-10-26T20:36:21.496Z,13.87
2022-10-26T20:38:50.010Z,13.83
2022-10-26T20:41:18.616Z,13.80
2022-10-26T20:43:47.154Z,13.75
2022-10-26T20:46:23.139Z,13.65
2022-10-26T20:48:54.224Z,13.62
2022-10-26T20:51:35.382Z,13.55
2022-10-26T20:54:08.712Z,13.54
2022-10-26T20:56:40.073Z,13.63
2022-10-26T20:59:27.154Z,13.71
2022-10-26T21:01:55.158Z,13.92
2022-10-26T21:04:24.483Z,14.01
2022-10-26T21:06:52.496Z,14.12
2022-10-26T21:09:23.228Z,14.15
2022-10-26T21:11:52.748Z,14.15
2022-10-26T21:14:20.669Z,14.07
2022-10-26T21:16:48.710Z,14.01
2022-10-26T21:19:16.661Z,13.96
2022-10-26T21:21:45.932Z,13.86
2022-10-26T21:24:13.846Z,13.76
2022-10-26T21:26:41.919Z,13.62
2022-10-26T21:29:11.327Z,13.70
2022-10-26T21:31:39.433Z,13.68
2022-10-26T21:34:07.542Z,13.65
2022-10-26T21:36:35.802Z,13.60
2022-10-26T21:39:07.883Z,13.60
2022-10-26T21:41:37.145Z,13.59
2022-10-26T21:44:09.658Z,13.58
2022-10-26T21:46:43.498Z,13.58
2022-10-26T21:49:11.425Z,13.55
2022-10-26T21:51:39.294Z,13.48
2022-10-26T21:54:08.713Z,13.35
2022-10-26T21:56:36.581Z,13.42
2022-10-26T21:59:05.820Z,13.42
2022-10-26T22:01:34.308Z,13.31
2022-10-26T22:04:02.263Z,13.36
2022-10-26T22:06:30.175Z,13.35
2022-10-26T22:08:58.000Z,13.29
2022-10-26T22:11:27.304Z,13.15
2022-10-26T22:13:55.536Z,13.17
2022-10-26T22:16:25.631Z,13.17
2022-10-26T22:18:55.871Z,13.14
2022-10-26T22:21:25.271Z,13.10
2022-10-26T22:23:53.684Z,13.04
2022-10-26T22:26:24.294Z,13.03
2022-10-26T22:28:55.730Z,13.02
2022-10-26T22:31:25.283Z,13.01
2022-10-26T22:33:53.717Z,12.93
2022-10-26T22:36:22.005Z,13.15
2022-10-26T22:38:50.773Z,13.22
2022-10-26T22:41:19.717Z,13.26
2022-10-26T22:43:47.822Z,13.32
2022-10-26T22:46:19.033Z,13.37
2022-10-26T22:48:46.973Z,13.38
2022-10-26T22:51:17.011Z,13.37
2022-10-26T22:53:45.127Z,13.43
2022-10-26T22:56:15.202Z,13.50
2022-10-26T22:58:44.324Z,13.51
2022-10-26T23:01:14.527Z,13.52
2022-10-26T23:03:44.387Z,13.49
2022-10-26T23:06:14.495Z,13.50
2022-10-26T23:08:42.947Z,13.48
2022-10-26T23:11:13.619Z,13.50
2022-10-26T23:13:41.603Z,13.51
2022-10-26T23:16:11.680Z,13.51
2022-10-26T23:18:40.052Z,13.53
2022-10-26T23:21:11.364Z,13.37
2022-10-26T23:23:39.874Z,13.47
2022-10-26T23:26:09.766Z,13.54
2022-10-26T23:28:37.836Z,13.55
2022-10-26T23:31:06.215Z,13.57
2022-10-26T23:33:34.572Z,13.49
2022-10-26T23:36:02.610Z,13.48
2022-10-26T23:38:31.820Z,13.43
2022-10-26T23:41:00.871Z,13.45
2022-10-26T23:43:29.309Z,13.35
2022-10-26T23:45:57.431Z,13.34
2022-10-26T23:48:25.377Z,13.28
2022-10-26T23:50:53.298Z,13.31
2022-10-26T23:53:23.177Z,13.18
2022-10-26T23:55:52.639Z,13.16
2022-10-26T23:58:20.770Z,13.08
